sensor_id;sensor_type;location;lat;lon;timestamp;temperature;humidity
47521;DHT22;32291;52.010;4.446;2022-09-13T00:00:48;18.80;99.90
47521;DHT22;32291;52.010;4.446;2022-09-13T00:01:53;18.80;99.90
47521;DHT22;32291;52.010;4.446;2022-09-13T00:02:56;18.80;99.90
47521;DHT22;32291;52.010;4.446;2022-09-13T00:03:59;18.80;99.90
47521;DHT22;32291;52.010;4.446;2022-09-13T00:05:01;18.80;99.90
47521;DHT22;32291;52.010;4.446;2022-09-13T00:06:16;18.80;99.90
47521;DHT22;32291;52.010;4.446;2022-09-13T00:07:22;18.80;99.90
47521;DHT22;32291;52.010;4.446;2022-09-13T00:08:25;18.80;99.90
47521;DHT22;32291;52.010;4.446;2022-09-13T00:09:27;18.80;99.90
47521;DHT22;32291;52.010;4.446;2022-09-13T00:10:32;18.80;99.90
47521;DHT22;32291;52.010;4.446;2022-09-13T00:11:38;18.80;99.90
47521;DHT22;32291;52.010;4.446;2022-09-13T00:12:41;18.80;99.90
47521;DHT22;32291;52.010;4.446;2022-09-13T00:13:45;18.80;99.90
47521;DHT22;32291;52.010;4.446;2022-09-13T00:14:51;18.60;99.90
47521;DHT22;32291;52.010;4.446;2022-09-13T00:15:54;18.80;99.90
47521;DHT22;32291;52.010;4.446;2022-09-13T00:16:56;18.80;99.90
47521;DHT22;32291;52.010;4.446;2022-09-13T00:17:59;18.70;99.90
47521;DHT22;32291;52.010;4.446;2022-09-13T00:19:07;18.80;99.90
47521;DHT22;32291;52.010;4.446;2022-09-13T00:20:10;18.80;99.90
47521;DHT22;32291;52.010;4.446;2022-09-13T00:21:16;18.70;99.90
47521;DHT22;32291;52.010;4.446;2022-09-13T00:22:21;18.70;99.90
47521;DHT22;32291;52.010;4.446;2022-09-13T00:23:25;18.80;99.90
47521;DHT22;32291;52.010;4.446;2022-09-13T00:24:28;18.80;99.90
47521;DHT22;32291;52.010;4.446;2022-09-13T00:25:31;18.70;99.90
47521;DHT22;32291;52.010;4.446;2022-09-13T00:26:33;18.70;99.90
47521;DHT22;32291;52.010;4.446;2022-09-13T00:27:38;18.70;99.90
47521;DHT22;32291;52.010;4.446;2022-09-13T00:28:42;18.70;99.90
47521;DHT22;32291;52.010;4.446;2022-09-13T00:29:46;18.70;99.90
47521;DHT22;32291;52.010;4.446;2022-09-13T00:30:49;18.70;99.90
47521;DHT22;32291;52.010;4.446;2022-09-13T00:31:52;18.70;99.90
47521;DHT22;32291;52.010;4.446;2022-09-13T00:32:55;18.70;99.90
47521;DHT22;32291;52.010;4.446;2022-09-13T00:33:59;18.70;99.90
47521;DHT22;32291;52.010;4.446;2022-09-13T00:35:06;18.70;99.90
47521;DHT22;32291;52.010;4.446;2022-09-13T00:36:13;18.70;99.90
47521;DHT22;32291;52.010;4.446;2022-09-13T00:37:18;18.70;99.90
47521;DHT22;32291;52.010;4.446;2022-09-13T00:38:23;18.70;99.90
47521;DHT22;32291;52.010;4.446;2022-09-13T00:39:27;18.70;99.90
47521;DHT22;32291;52.010;4.446;2022-09-13T00:40:38;18.70;99.90
47521;DHT22;32291;52.010;4.446;2022-09-13T00:41:43;18.70;99.90
47521;DHT22;32291;52.010;4.446;2022-09-13T00:42:48;18.70;99.90
47521;DHT22;32291;52.010;4.446;2022-09-13T00:43:53;18.70;99.90
47521;DHT22;32291;52.010;4.446;2022-09-13T00:48:05;18.60;99.90
47521;DHT22;32291;52.010;4.446;2022-09-13T00:49:32;18.70;99.90
47521;DHT22;32291;52.010;4.446;2022-09-13T00:50:49;18.70;99.90
47521;DHT22;32291;52.010;4.446;2022-09-13T00:52:02;18.70;99.90
47521;DHT22;32291;52.010;4.446;2022-09-13T00:53:25;18.70;99.90
47521;DHT22;32291;52.010;4.446;2022-09-13T00:54:43;18.70;99.90
47521;DHT22;32291;52.010;4.446;2022-09-13T00:56:07;18.60;99.90
47521;DHT22;32291;52.010;4.446;2022-09-13T00:57:21;18.70;99.90
47521;DHT22;32291;52.010;4.446;2022-09-13T01:00:18;18.60;99.90
47521;DHT22;32291;52.010;4.446;2022-09-13T01:01:29;18.30;99.90
47521;DHT22;32291;52.010;4.446;2022-09-13T01:02:47;18.70;99.90
47521;DHT22;32291;52.010;4.446;2022-09-13T01:04:02;18.70;99.90
47521;DHT22;32291;52.010;4.446;2022-09-13T01:07:00;18.70;99.90
47521;DHT22;32291;52.010;4.446;2022-09-13T01:08:12;18.70;99.90
47521;DHT22;32291;52.010;4.446;2022-09-13T01:09:24;18.70;99.90
47521;DHT22;32291;52.010;4.446;2022-09-13T01:10:33;18.70;99.90
47521;DHT22;32291;52.010;4.446;2022-09-13T01:12:59;18.70;99.90
47521;DHT22;32291;52.010;4.446;2022-09-13T01:14:17;18.70;99.90
47521;DHT22;32291;52.010;4.446;2022-09-13T01:15:22;18.70;99.90
47521;DHT22;32291;52.010;4.446;2022-09-13T01:16:26;18.70;99.90
47521;DHT22;32291;52.010;4.446;2022-09-13T01:17:31;18.60;99.90
47521;DHT22;32291;52.010;4.446;2022-09-13T01:18:36;18.70;99.90
47521;DHT22;32291;52.010;4.446;2022-09-13T01:19:42;18.70;99.90
47521;DHT22;32291;52.010;4.446;2022-09-13T01:23:37;18.70;99.90
47521;DHT22;32291;52.010;4.446;2022-09-13T01:24:53;18.70;99.90
47521;DHT22;32291;52.010;4.446;2022-09-13T01:26:42;18.70;99.90
47521;DHT22;32291;52.010;4.446;2022-09-13T01:30:08;18.70;99.90
47521;DHT22;32291;52.010;4.446;2022-09-13T01:32:56;18.70;99.90
47521;DHT22;32291;52.010;4.446;2022-09-13T01:34:27;18.70;99.90
47521;DHT22;32291;52.010;4.446;2022-09-13T01:36:40;18.50;99.90
47521;DHT22;32291;52.010;4.446;2022-09-13T01:43:37;18.70;99.90
47521;DHT22;32291;52.010;4.446;2022-09-13T01:49:19;18.70;99.90
47521;DHT22;32291;52.010;4.446;2022-09-13T01:51:32;18.70;99.90
47521;DHT22;32291;52.010;4.446;2022-09-13T01:53:00;18.70;99.90
47521;DHT22;32291;52.010;4.446;2022-09-13T01:59:49;18.70;99.90
47521;DHT22;32291;52.010;4.446;2022-09-13T02:01:15;18.70;99.90
47521;DHT22;32291;52.010;4.446;2022-09-13T02:02:38;18.70;99.90
47521;DHT22;32291;52.010;4.446;2022-09-13T02:04:07;18.60;99.90
47521;DHT22;32291;52.010;4.446;2022-09-13T02:05:30;18.70;99.90
47521;DHT22;32291;52.010;4.446;2022-09-13T02:07:14;18.60;99.90
47521;DHT22;32291;52.010;4.446;2022-09-13T02:08:51;18.60;99.90
47521;DHT22;32291;52.010;4.446;2022-09-13T02:10:16;18.70;99.90
47521;DHT22;32291;52.010;4.446;2022-09-13T02:11:27;18.70;99.90
47521;DHT22;32291;52.010;4.446;2022-09-13T02:12:33;18.60;99.90
47521;DHT22;32291;52.010;4.446;2022-09-13T02:15:11;18.70;99.90
47521;DHT22;32291;52.010;4.446;2022-09-13T02:16:53;18.70;99.90
47521;DHT22;32291;52.010;4.446;2022-09-13T02:18:34;18.60;99.90
47521;DHT22;32291;52.010;4.446;2022-09-13T02:19:55;18.70;99.90
47521;DHT22;32291;52.010;4.446;2022-09-13T02:21:37;18.70;99.90
47521;DHT22;32291;52.010;4.446;2022-09-13T02:22:49;18.60;99.90
47521;DHT22;32291;52.010;4.446;2022-09-13T02:24:36;18.60;99.90
47521;DHT22;32291;52.010;4.446;2022-09-13T02:25:45;18.60;99.90
47521;DHT22;32291;52.010;4.446;2022-09-13T02:26:55;18.60;99.90
47521;DHT22;32291;52.010;4.446;2022-09-13T02:28:09;18.60;99.90
47521;DHT22;32291;52.010;4.446;2022-09-13T02:29:23;18.60;99.90
47521;DHT22;32291;52.010;4.446;2022-09-13T02:30:30;17.80;99.90
47521;DHT22;32291;52.010;4.446;2022-09-13T02:31:54;18.60;99.90
47521;DHT22;32291;52.010;4.446;2022-09-13T02:33:28;18.60;99.90
47521;DHT22;32291;52.010;4.446;2022-09-13T02:34:55;18.60;99.90
47521;DHT22;32291;52.010;4.446;2022-09-13T02:36:07;18.60;99.90
47521;DHT22;32291;52.010;4.446;2022-09-13T02:37:23;18.50;99.90
47521;DHT22;32291;52.010;4.446;2022-09-13T02:38:38;18.60;99.90
47521;DHT22;32291;52.010;4.446;2022-09-13T02:40:05;18.60;99.90
47521;DHT22;32291;52.010;4.446;2022-09-13T02:41:24;18.50;99.90
47521;DHT22;32291;52.010;4.446;2022-09-13T02:44:47;18.50;99.90
47521;DHT22;32291;52.010;4.446;2022-09-13T02:48:00;18.50;99.90
47521;DHT22;32291;52.010;4.446;2022-09-13T02:53:00;18.50;99.90
47521;DHT22;32291;52.010;4.446;2022-09-13T02:54:54;18.50;99.90
47521;DHT22;32291;52.010;4.446;2022-09-13T02:57:04;18.50;99.90
47521;DHT22;32291;52.010;4.446;2022-09-13T02:58:49;18.50;99.90
47521;DHT22;32291;52.010;4.446;2022-09-13T03:00:13;18.50;99.90
47521;DHT22;32291;52.010;4.446;2022-09-13T03:01:16;18.50;99.90
47521;DHT22;32291;52.010;4.446;2022-09-13T03:02:21;18.50;99.90
47521;DHT22;32291;52.010;4.446;2022-09-13T03:03:31;18.50;99.90
47521;DHT22;32291;52.010;4.446;2022-09-13T03:04:34;18.50;99.90
47521;DHT22;32291;52.010;4.446;2022-09-13T03:05:45;18.50;99.90
47521;DHT22;32291;52.010;4.446;2022-09-13T03:06:49;18.50;99.90
47521;DHT22;32291;52.010;4.446;2022-09-13T03:07:56;18.50;99.90
47521;DHT22;32291;52.010;4.446;2022-09-13T03:09:03;18.50;99.90
47521;DHT22;32291;52.010;4.446;2022-09-13T03:10:12;18.50;99.90
47521;DHT22;32291;52.010;4.446;2022-09-13T03:13:06;18.50;99.90
47521;DHT22;32291;52.010;4.446;2022-09-13T03:26:23;18.40;99.90
47521;DHT22;32291;52.010;4.446;2022-09-13T03:27:43;18.40;99.90
47521;DHT22;32291;52.010;4.446;2022-09-13T03:29:29;18.40;99.90
47521;DHT22;32291;52.010;4.446;2022-09-13T03:30:47;18.40;99.90
47521;DHT22;32291;52.010;4.446;2022-09-13T03:33:45;18.40;99.90
47521;DHT22;32291;52.010;4.446;2022-09-13T03:35:07;18.40;99.90
47521;DHT22;32291;52.010;4.446;2022-09-13T03:37:16;18.00;99.90
47521;DHT22;32291;52.010;4.446;2022-09-13T03:39:00;18.40;99.90
47521;DHT22;32291;52.010;4.446;2022-09-13T03:40:33;18.40;99.90
47521;DHT22;32291;52.010;4.446;2022-09-13T03:42:42;18.40;99.90
47521;DHT22;32291;52.010;4.446;2022-09-13T03:44:05;18.40;99.90
47521;DHT22;32291;52.010;4.446;2022-09-13T03:45:15;18.40;99.90
47521;DHT22;32291;52.010;4.446;2022-09-13T03:46:57;18.40;99.90
47521;DHT22;32291;52.010;4.446;2022-09-13T03:48:06;18.30;99.90
47521;DHT22;32291;52.010;4.446;2022-09-13T03:49:14;18.40;99.90
47521;DHT22;32291;52.010;4.446;2022-09-13T03:50:24;18.40;99.90
47521;DHT22;32291;52.010;4.446;2022-09-13T03:51:28;18.30;99.90
47521;DHT22;32291;52.010;4.446;2022-09-13T03:52:31;18.40;99.90
47521;DHT22;32291;52.010;4.446;2022-09-13T03:53:42;18.40;99.90
47521;DHT22;32291;52.010;4.446;2022-09-13T03:54:54;18.40;99.90
47521;DHT22;32291;52.010;4.446;2022-09-13T03:56:00;18.30;99.90
47521;DHT22;32291;52.010;4.446;2022-09-13T03:57:18;18.30;99.90
47521;DHT22;32291;52.010;4.446;2022-09-13T03:58:25;18.30;99.90
47521;DHT22;32291;52.010;4.446;2022-09-13T03:59:28;18.30;99.90
47521;DHT22;32291;52.010;4.446;2022-09-13T04:00:30;18.30;99.90
47521;DHT22;32291;52.010;4.446;2022-09-13T04:01:33;18.30;99.90
47521;DHT22;32291;52.010;4.446;2022-09-13T04:02:35;18.30;99.90
47521;DHT22;32291;52.010;4.446;2022-09-13T04:03:38;18.20;99.90
47521;DHT22;32291;52.010;4.446;2022-09-13T04:04:43;18.30;99.90
47521;DHT22;32291;52.010;4.446;2022-09-13T04:05:47;18.30;99.90
47521;DHT22;32291;52.010;4.446;2022-09-13T04:06:52;18.30;99.90
47521;DHT22;32291;52.010;4.446;2022-09-13T04:07:56;18.30;99.90
47521;DHT22;32291;52.010;4.446;2022-09-13T04:08:59;18.20;99.90
47521;DHT22;32291;52.010;4.446;2022-09-13T04:10:01;18.20;99.90
47521;DHT22;32291;52.010;4.446;2022-09-13T04:11:05;18.20;99.90
47521;DHT22;32291;52.010;4.446;2022-09-13T04:12:07;18.20;99.90
47521;DHT22;32291;52.010;4.446;2022-09-13T04:13:10;18.20;99.90
47521;DHT22;32291;52.010;4.446;2022-09-13T04:14:16;18.20;99.90
47521;DHT22;32291;52.010;4.446;2022-09-13T04:15:19;18.20;99.90
47521;DHT22;32291;52.010;4.446;2022-09-13T04:16:29;18.20;99.90
47521;DHT22;32291;52.010;4.446;2022-09-13T04:17:37;18.10;99.90
47521;DHT22;32291;52.010;4.446;2022-09-13T04:18:44;18.10;99.90
47521;DHT22;32291;52.010;4.446;2022-09-13T04:19:46;18.10;99.90
47521;DHT22;32291;52.010;4.446;2022-09-13T04:20:56;18.10;99.90
47521;DHT22;32291;52.010;4.446;2022-09-13T04:22:01;18.10;99.90
47521;DHT22;32291;52.010;4.446;2022-09-13T04:23:04;18.10;99.90
47521;DHT22;32291;52.010;4.446;2022-09-13T04:24:07;18.10;99.90
47521;DHT22;32291;52.010;4.446;2022-09-13T04:25:15;18.10;99.90
47521;DHT22;32291;52.010;4.446;2022-09-13T04:26:17;18.00;99.90
47521;DHT22;32291;52.010;4.446;2022-09-13T04:27:26;18.00;99.90
47521;DHT22;32291;52.010;4.446;2022-09-13T04:28:32;18.00;99.90
47521;DHT22;32291;52.010;4.446;2022-09-13T04:29:35;18.00;99.90
47521;DHT22;32291;52.010;4.446;2022-09-13T04:30:37;18.00;99.90
47521;DHT22;32291;52.010;4.446;2022-09-13T04:31:44;18.00;99.90
47521;DHT22;32291;52.010;4.446;2022-09-13T04:32:47;17.50;99.90
47521;DHT22;32291;52.010;4.446;2022-09-13T04:33:52;18.00;99.90
47521;DHT22;32291;52.010;4.446;2022-09-13T04:34:55;17.90;99.90
47521;DHT22;32291;52.010;4.446;2022-09-13T04:36:00;18.00;99.90
47521;DHT22;32291;52.010;4.446;2022-09-13T04:37:08;18.00;99.90
47521;DHT22;32291;52.010;4.446;2022-09-13T04:38:10;18.00;99.90
47521;DHT22;32291;52.010;4.446;2022-09-13T04:39:22;18.00;99.90
47521;DHT22;32291;52.010;4.446;2022-09-13T04:40:25;17.20;99.90
47521;DHT22;32291;52.010;4.446;2022-09-13T04:41:31;18.00;99.90
47521;DHT22;32291;52.010;4.446;2022-09-13T04:42:34;18.00;99.90
47521;DHT22;32291;52.010;4.446;2022-09-13T04:43:36;18.00;99.90
47521;DHT22;32291;52.010;4.446;2022-09-13T04:44:42;18.00;99.90
47521;DHT22;32291;52.010;4.446;2022-09-13T04:45:45;18.00;99.90
47521;DHT22;32291;52.010;4.446;2022-09-13T04:46:48;19.30;99.90
47521;DHT22;32291;52.010;4.446;2022-09-13T04:47:52;18.00;99.90
47521;DHT22;32291;52.010;4.446;2022-09-13T04:48:55;18.00;99.90
47521;DHT22;32291;52.010;4.446;2022-09-13T04:50:04;18.00;99.90
47521;DHT22;32291;52.010;4.446;2022-09-13T04:51:07;18.00;99.90
47521;DHT22;32291;52.010;4.446;2022-09-13T04:52:11;18.00;99.90
47521;DHT22;32291;52.010;4.446;2022-09-13T04:53:15;18.00;99.90
47521;DHT22;32291;52.010;4.446;2022-09-13T04:54:19;18.00;99.90
47521;DHT22;32291;52.010;4.446;2022-09-13T04:55:23;18.00;99.90
47521;DHT22;32291;52.010;4.446;2022-09-13T04:56:26;18.10;99.90
47521;DHT22;32291;52.010;4.446;2022-09-13T04:57:29;18.10;99.90
47521;DHT22;32291;52.010;4.446;2022-09-13T04:58:32;18.10;99.90
47521;DHT22;32291;52.010;4.446;2022-09-13T04:59:34;18.10;99.90
47521;DHT22;32291;52.010;4.446;2022-09-13T05:00:43;18.10;99.90
47521;DHT22;32291;52.010;4.446;2022-09-13T05:01:46;18.10;99.90
47521;DHT22;32291;52.010;4.446;2022-09-13T05:02:55;18.10;99.90
47521;DHT22;32291;52.010;4.446;2022-09-13T05:03:58;18.10;99.90
47521;DHT22;32291;52.010;4.446;2022-09-13T05:05:01;18.10;99.90
47521;DHT22;32291;52.010;4.446;2022-09-13T05:06:05;18.10;99.90
47521;DHT22;32291;52.010;4.446;2022-09-13T05:07:14;18.10;99.90
47521;DHT22;32291;52.010;4.446;2022-09-13T05:08:17;18.10;99.90
47521;DHT22;32291;52.010;4.446;2022-09-13T05:09:23;18.10;99.90
47521;DHT22;32291;52.010;4.446;2022-09-13T05:10:25;17.70;99.90
47521;DHT22;32291;52.010;4.446;2022-09-13T05:11:34;18.10;99.90
47521;DHT22;32291;52.010;4.446;2022-09-13T05:12:36;18.10;99.90
47521;DHT22;32291;52.010;4.446;2022-09-13T05:13:39;18.00;99.90
47521;DHT22;32291;52.010;4.446;2022-09-13T05:14:42;18.20;99.90
47521;DHT22;32291;52.010;4.446;2022-09-13T05:15:46;18.20;99.90
47521;DHT22;32291;52.010;4.446;2022-09-13T05:16:51;18.20;99.90
47521;DHT22;32291;52.010;4.446;2022-09-13T05:17:53;18.20;99.90
47521;DHT22;32291;52.010;4.446;2022-09-13T05:19:00;18.30;99.90
47521;DHT22;32291;52.010;4.446;2022-09-13T05:20:04;18.30;99.90
47521;DHT22;32291;52.010;4.446;2022-09-13T05:21:08;18.30;99.90
47521;DHT22;32291;52.010;4.446;2022-09-13T05:22:17;18.30;99.90
47521;DHT22;32291;52.010;4.446;2022-09-13T05:23:24;18.30;99.90
47521;DHT22;32291;52.010;4.446;2022-09-13T05:24:28;18.30;99.90
47521;DHT22;32291;52.010;4.446;2022-09-13T05:25:32;18.20;99.90
47521;DHT22;32291;52.010;4.446;2022-09-13T05:26:35;18.30;99.90
47521;DHT22;32291;52.010;4.446;2022-09-13T05:27:46;18.20;99.90
47521;DHT22;32291;52.010;4.446;2022-09-13T05:28:49;18.30;99.90
47521;DHT22;32291;52.010;4.446;2022-09-13T05:29:51;18.20;99.90
47521;DHT22;32291;52.010;4.446;2022-09-13T05:30:58;18.20;99.90
47521;DHT22;32291;52.010;4.446;2022-09-13T05:32:31;18.20;99.90
47521;DHT22;32291;52.010;4.446;2022-09-13T05:33:36;18.20;99.90
47521;DHT22;32291;52.010;4.446;2022-09-13T05:34:40;18.20;99.90
47521;DHT22;32291;52.010;4.446;2022-09-13T05:35:43;18.30;99.90
47521;DHT22;32291;52.010;4.446;2022-09-13T05:36:46;18.30;99.90
47521;DHT22;32291;52.010;4.446;2022-09-13T05:37:56;18.30;99.90
47521;DHT22;32291;52.010;4.446;2022-09-13T05:39:10;18.30;99.90
47521;DHT22;32291;52.010;4.446;2022-09-13T05:40:19;18.30;99.90
47521;DHT22;32291;52.010;4.446;2022-09-13T05:41:25;18.30;99.90
47521;DHT22;32291;52.010;4.446;2022-09-13T05:42:28;18.30;99.90
47521;DHT22;32291;52.010;4.446;2022-09-13T05:43:35;18.30;99.90
47521;DHT22;32291;52.010;4.446;2022-09-13T05:44:41;18.30;99.90
47521;DHT22;32291;52.010;4.446;2022-09-13T05:45:44;18.40;99.90
47521;DHT22;32291;52.010;4.446;2022-09-13T05:46:49;18.30;99.90
47521;DHT22;32291;52.010;4.446;2022-09-13T05:47:53;18.40;99.90
47521;DHT22;32291;52.010;4.446;2022-09-13T05:48:59;18.40;99.90
47521;DHT22;32291;52.010;4.446;2022-09-13T05:50:02;18.30;99.90
47521;DHT22;32291;52.010;4.446;2022-09-13T05:51:12;18.40;99.90
47521;DHT22;32291;52.010;4.446;2022-09-13T05:52:23;18.30;99.90
47521;DHT22;32291;52.010;4.446;2022-09-13T05:53:27;18.40;99.90
47521;DHT22;32291;52.010;4.446;2022-09-13T05:54:32;18.40;99.90
47521;DHT22;32291;52.010;4.446;2022-09-13T05:55:35;18.40;99.90
47521;DHT22;32291;52.010;4.446;2022-09-13T05:56:38;18.40;99.90
47521;DHT22;32291;52.010;4.446;2022-09-13T05:57:42;18.10;99.90
47521;DHT22;32291;52.010;4.446;2022-09-13T05:58:47;18.40;99.90
47521;DHT22;32291;52.010;4.446;2022-09-13T05:59:51;18.40;99.90
47521;DHT22;32291;52.010;4.446;2022-09-13T06:00:55;18.40;99.90
47521;DHT22;32291;52.010;4.446;2022-09-13T06:01:59;18.50;99.90
47521;DHT22;32291;52.010;4.446;2022-09-13T06:03:02;18.40;99.90
47521;DHT22;32291;52.010;4.446;2022-09-13T06:04:06;18.50;99.90
47521;DHT22;32291;52.010;4.446;2022-09-13T06:05:10;18.50;99.90
47521;DHT22;32291;52.010;4.446;2022-09-13T06:06:15;17.20;99.90
47521;DHT22;32291;52.010;4.446;2022-09-13T06:07:19;18.50;99.90
47521;DHT22;32291;52.010;4.446;2022-09-13T06:08:24;18.50;99.90
47521;DHT22;32291;52.010;4.446;2022-09-13T06:09:34;18.50;99.90
47521;DHT22;32291;52.010;4.446;2022-09-13T06:10:37;18.60;99.90
47521;DHT22;32291;52.010;4.446;2022-09-13T06:11:42;19.20;99.90
47521;DHT22;32291;52.010;4.446;2022-09-13T06:12:50;18.60;99.90
47521;DHT22;32291;52.010;4.446;2022-09-13T06:13:53;18.60;99.90
47521;DHT22;32291;52.010;4.446;2022-09-13T06:14:56;18.60;99.90
47521;DHT22;32291;52.010;4.446;2022-09-13T06:16:03;18.60;99.90
47521;DHT22;32291;52.010;4.446;2022-09-13T06:17:08;18.60;99.90
47521;DHT22;32291;52.010;4.446;2022-09-13T06:18:12;18.60;99.90
47521;DHT22;32291;52.010;4.446;2022-09-13T06:19:17;18.70;99.90
47521;DHT22;32291;52.010;4.446;2022-09-13T06:20:23;18.70;99.90
47521;DHT22;32291;52.010;4.446;2022-09-13T06:21:30;17.80;99.90
47521;DHT22;32291;52.010;4.446;2022-09-13T06:22:33;19.10;99.90
47521;DHT22;32291;52.010;4.446;2022-09-13T06:23:36;18.70;99.90
47521;DHT22;32291;52.010;4.446;2022-09-13T06:24:40;18.70;99.90
47521;DHT22;32291;52.010;4.446;2022-09-13T06:25:46;18.80;99.90
47521;DHT22;32291;52.010;4.446;2022-09-13T06:26:50;18.80;99.90
47521;DHT22;32291;52.010;4.446;2022-09-13T06:27:53;18.80;99.90
47521;DHT22;32291;52.010;4.446;2022-09-13T06:28:57;18.80;99.90
47521;DHT22;32291;52.010;4.446;2022-09-13T06:30:03;18.90;99.90
47521;DHT22;32291;52.010;4.446;2022-09-13T06:31:11;18.90;99.90
47521;DHT22;32291;52.010;4.446;2022-09-13T06:32:16;18.90;99.90
47521;DHT22;32291;52.010;4.446;2022-09-13T06:33:19;18.90;99.90
47521;DHT22;32291;52.010;4.446;2022-09-13T06:34:22;19.00;99.90
47521;DHT22;32291;52.010;4.446;2022-09-13T06:35:24;19.00;99.90
47521;DHT22;32291;52.010;4.446;2022-09-13T06:36:33;19.00;99.90
47521;DHT22;32291;52.010;4.446;2022-09-13T06:37:38;19.10;99.90
47521;DHT22;32291;52.010;4.446;2022-09-13T06:38:47;19.10;99.90
47521;DHT22;32291;52.010;4.446;2022-09-13T06:39:51;19.10;99.90
47521;DHT22;32291;52.010;4.446;2022-09-13T06:41:03;19.20;99.90
47521;DHT22;32291;52.010;4.446;2022-09-13T06:42:14;19.20;99.90
47521;DHT22;32291;52.010;4.446;2022-09-13T06:43:21;19.20;99.90
47521;DHT22;32291;52.010;4.446;2022-09-13T06:44:25;19.20;99.90
47521;DHT22;32291;52.010;4.446;2022-09-13T06:45:27;19.30;99.90
47521;DHT22;32291;52.010;4.446;2022-09-13T06:46:32;19.30;99.90
47521;DHT22;32291;52.010;4.446;2022-09-13T06:47:35;19.30;99.90
47521;DHT22;32291;52.010;4.446;2022-09-13T06:48:42;19.40;99.90
47521;DHT22;32291;52.010;4.446;2022-09-13T06:49:47;19.50;99.90
47521;DHT22;32291;52.010;4.446;2022-09-13T06:50:58;19.50;99.90
47521;DHT22;32291;52.010;4.446;2022-09-13T06:52:08;19.50;99.90
47521;DHT22;32291;52.010;4.446;2022-09-13T06:53:10;19.60;99.90
47521;DHT22;32291;52.010;4.446;2022-09-13T06:54:13;19.60;99.90
47521;DHT22;32291;52.010;4.446;2022-09-13T06:55:16;19.70;99.90
47521;DHT22;32291;52.010;4.446;2022-09-13T06:57:31;19.80;99.90
47521;DHT22;32291;52.010;4.446;2022-09-13T06:58:36;19.80;99.90
47521;DHT22;32291;52.010;4.446;2022-09-13T06:59:42;19.80;99.90
47521;DHT22;32291;52.010;4.446;2022-09-13T07:00:45;19.80;99.90
47521;DHT22;32291;52.010;4.446;2022-09-13T07:01:47;19.80;99.90
47521;DHT22;32291;52.010;4.446;2022-09-13T07:02:51;19.80;99.90
47521;DHT22;32291;52.010;4.446;2022-09-13T07:04:02;19.90;99.90
47521;DHT22;32291;52.010;4.446;2022-09-13T07:05:18;19.90;99.90
47521;DHT22;32291;52.010;4.446;2022-09-13T07:06:27;20.00;99.90
47521;DHT22;32291;52.010;4.446;2022-09-13T07:07:33;19.90;99.90
47521;DHT22;32291;52.010;4.446;2022-09-13T07:08:36;19.90;99.90
47521;DHT22;32291;52.010;4.446;2022-09-13T07:09:42;19.90;99.90
47521;DHT22;32291;52.010;4.446;2022-09-13T07:10:44;19.90;99.90
47521;DHT22;32291;52.010;4.446;2022-09-13T07:11:52;20.00;99.90
47521;DHT22;32291;52.010;4.446;2022-09-13T07:12:56;20.30;99.90
47521;DHT22;32291;52.010;4.446;2022-09-13T07:13:59;20.00;99.90
47521;DHT22;32291;52.010;4.446;2022-09-13T07:15:02;20.10;99.90
47521;DHT22;32291;52.010;4.446;2022-09-13T07:16:10;20.10;99.90
47521;DHT22;32291;52.010;4.446;2022-09-13T07:17:12;20.20;99.90
47521;DHT22;32291;52.010;4.446;2022-09-13T07:18:15;20.30;99.90
47521;DHT22;32291;52.010;4.446;2022-09-13T07:19:22;20.30;99.90
47521;DHT22;32291;52.010;4.446;2022-09-13T07:20:27;20.30;99.90
47521;DHT22;32291;52.010;4.446;2022-09-13T07:21:31;20.40;99.90
47521;DHT22;32291;52.010;4.446;2022-09-13T07:22:36;20.40;99.90
47521;DHT22;32291;52.010;4.446;2022-09-13T07:23:40;20.40;99.90
47521;DHT22;32291;52.010;4.446;2022-09-13T07:24:46;20.30;99.90
47521;DHT22;32291;52.010;4.446;2022-09-13T07:25:54;20.40;99.90
47521;DHT22;32291;52.010;4.446;2022-09-13T07:27:04;20.40;99.90
47521;DHT22;32291;52.010;4.446;2022-09-13T07:28:07;20.30;99.90
47521;DHT22;32291;52.010;4.446;2022-09-13T07:29:13;20.30;99.90
47521;DHT22;32291;52.010;4.446;2022-09-13T07:30:23;20.30;99.90
47521;DHT22;32291;52.010;4.446;2022-09-13T07:31:30;20.30;99.90
47521;DHT22;32291;52.010;4.446;2022-09-13T07:32:38;20.30;99.90
47521;DHT22;32291;52.010;4.446;2022-09-13T07:33:43;20.30;99.90
47521;DHT22;32291;52.010;4.446;2022-09-13T07:34:47;20.30;99.90
47521;DHT22;32291;52.010;4.446;2022-09-13T07:35:55;20.30;99.90
47521;DHT22;32291;52.010;4.446;2022-09-13T07:36:58;20.40;99.90
47521;DHT22;32291;52.010;4.446;2022-09-13T07:38:01;20.40;99.90
47521;DHT22;32291;52.010;4.446;2022-09-13T07:39:04;20.40;99.90
47521;DHT22;32291;52.010;4.446;2022-09-13T07:40:13;20.40;99.90
47521;DHT22;32291;52.010;4.446;2022-09-13T07:41:20;20.40;99.90
47521;DHT22;32291;52.010;4.446;2022-09-13T07:42:26;20.40;99.90
47521;DHT22;32291;52.010;4.446;2022-09-13T07:43:29;20.40;99.90
47521;DHT22;32291;52.010;4.446;2022-09-13T07:44:33;20.40;99.90
47521;DHT22;32291;52.010;4.446;2022-09-13T07:45:36;20.40;99.90
47521;DHT22;32291;52.010;4.446;2022-09-13T07:46:42;20.40;99.90
47521;DHT22;32291;52.010;4.446;2022-09-13T07:47:45;20.40;99.90
47521;DHT22;32291;52.010;4.446;2022-09-13T07:48:50;20.90;99.90
47521;DHT22;32291;52.010;4.446;2022-09-13T07:49:57;20.30;99.90
47521;DHT22;32291;52.010;4.446;2022-09-13T07:51:18;20.50;99.90
47521;DHT22;32291;52.010;4.446;2022-09-13T07:52:24;20.80;99.90
47521;DHT22;32291;52.010;4.446;2022-09-13T07:53:31;20.60;99.90
47521;DHT22;32291;52.010;4.446;2022-09-13T07:54:35;20.60;99.90
47521;DHT22;32291;52.010;4.446;2022-09-13T07:55:39;20.70;99.90
47521;DHT22;32291;52.010;4.446;2022-09-13T07:56:43;20.70;99.90
47521;DHT22;32291;52.010;4.446;2022-09-13T07:57:47;20.70;99.90
47521;DHT22;32291;52.010;4.446;2022-09-13T07:58:51;20.70;99.90
47521;DHT22;32291;52.010;4.446;2022-09-13T07:59:58;20.70;99.90
47521;DHT22;32291;52.010;4.446;2022-09-13T08:01:06;20.70;99.90
47521;DHT22;32291;52.010;4.446;2022-09-13T08:02:17;20.70;99.90
47521;DHT22;32291;52.010;4.446;2022-09-13T08:03:19;20.80;99.90
47521;DHT22;32291;52.010;4.446;2022-09-13T08:04:25;20.90;99.90
47521;DHT22;32291;52.010;4.446;2022-09-13T08:05:28;20.90;99.90
47521;DHT22;32291;52.010;4.446;2022-09-13T08:06:32;21.00;99.90
47521;DHT22;32291;52.010;4.446;2022-09-13T08:07:36;21.10;99.90
47521;DHT22;32291;52.010;4.446;2022-09-13T08:08:38;21.10;99.90
47521;DHT22;32291;52.010;4.446;2022-09-13T08:09:49;21.20;99.90
47521;DHT22;32291;52.010;4.446;2022-09-13T08:10:53;21.20;99.90
47521;DHT22;32291;52.010;4.446;2022-09-13T08:11:56;21.30;99.90
47521;DHT22;32291;52.010;4.446;2022-09-13T08:13:01;21.40;99.90
47521;DHT22;32291;52.010;4.446;2022-09-13T08:14:05;21.50;99.90